Time,TemperatureF,DewpointF,PressureIn,WindDirection,WindDirectionDegrees,WindSpeedMPH,WindSpeedGustMPH,Humidity,HourlyPrecipIn,Conditions,Clouds,dailyrainin,SoftwareType,DateUTC
2013-03-27 00:00:00,29.1,19.6,30.24,North,359,6.0,6.0,67,0.00,,,0.00,meteohub,2013-03-27 04:00:00,
2013-03-27 00:03:00,29.3,19.4,30.24,NW,311,2.0,6.0,66,0.00,,,0.00,meteohub,2013-03-27 04:03:00,
2013-03-27 00:08:00,29.3,19.4,30.24,NNW,329,2.0,9.0,66,0.00,,,0.00,meteohub,2013-03-27 04:08:00,
2013-03-27 00:13:00,29.1,19.6,30.24,NW,320,1.0,9.0,67,0.00,,,0.00,meteohub,2013-03-27 04:13:00,
2013-03-27 00:18:00,29.1,19.6,30.24,NW,311,1.0,9.0,67,0.00,,,0.00,meteohub,2013-03-27 04:18:00,
2013-03-27 00:23:00,28.9,19.8,30.24,NW,314,0.0,7.0,68,0.00,,,0.00,meteohub,2013-03-27 04:23:00,
2013-03-27 00:28:00,28.8,19.6,30.25,North,6,1.0,4.0,68,0.00,,,0.00,meteohub,2013-03-27 04:28:00,
2013-03-27 00:33:00,28.8,19.6,30.24,NNW,328,0.0,3.0,68,0.00,,,0.00,meteohub,2013-03-27 04:33:00,
2013-03-27 00:38:00,28.6,19.4,30.25,NNW,342,3.0,3.0,68,0.00,,,0.00,meteohub,2013-03-27 04:38:00,
2013-03-27 00:43:00,28.6,19.8,30.24,NW,321,1.0,5.0,69,0.00,,,0.00,meteohub,2013-03-27 04:43:00,
2013-03-27 00:48:00,28.6,19.4,30.24,West,271,1.0,5.0,68,0.00,,,0.00,meteohub,2013-03-27 04:48:00,
2013-03-27 00:53:00,28.8,19.6,30.24,WNW,293,1.0,7.0,68,0.00,,,0.00,meteohub,2013-03-27 04:53:00,
2013-03-27 00:58:00,28.8,19.6,30.24,WNW,302,0.0,7.0,68,0.00,,,0.00,meteohub,2013-03-27 04:58:00,
2013-03-27 01:03:00,28.6,19.8,30.24,NW,318,2.0,7.0,69,0.00,,,0.00,meteohub,2013-03-27 05:03:00,
2013-03-27 01:08:00,28.6,19.4,30.24,NW,305,2.0,4.0,68,0.00,,,0.00,meteohub,2013-03-27 05:08:00,
2013-03-27 01:13:00,28.6,19.4,30.24,NW,308,0.0,5.0,68,0.00,,,0.00,meteohub,2013-03-27 05:13:00,
2013-03-27 01:18:00,28.6,19.4,30.24,NW,315,1.0,5.0,68,0.00,,,0.00,meteohub,2013-03-27 05:18:00,
2013-03-27 01:23:00,28.2,19.4,30.24,NNW,335,0.0,5.0,69,0.00,,,0.00,meteohub,2013-03-27 05:23:00,
2013-03-27 01:28:00,28.2,19.4,30.24,NNW,336,1.0,4.0,69,0.00,,,0.00,meteohub,2013-03-27 05:28:00,
2013-03-27 01:33:00,28.2,19.4,30.24,WNW,288,2.0,4.0,69,0.00,,,0.00,meteohub,2013-03-27 05:33:00,
2013-03-27 01:38:00,28.2,19.4,30.24,NW,315,0.0,4.0,69,0.00,,,0.00,meteohub,2013-03-27 05:38:00,
2013-03-27 01:43:00,27.9,19.0,30.24,NW,315,0.0,3.0,69,0.00,,,0.00,meteohub,2013-03-27 05:43:00,
2013-03-27 01:48:00,27.3,19.2,30.24,NW,315,0.0,3.0,71,0.00,,,0.00,meteohub,2013-03-27 05:48:00,
2013-03-27 01:53:00,26.6,19.8,30.24,WNW,288,0.0,0.0,75,0.00,,,0.00,meteohub,2013-03-27 05:53:00,
2013-03-27 01:58:00,26.1,19.2,30.24,WNW,288,0.0,0.0,75,0.00,,,0.00,meteohub,2013-03-27 05:58:00,
2013-03-27 02:03:00,25.7,18.9,30.24,WNW,288,0.0,0.0,75,0.00,,,0.00,meteohub,2013-03-27 06:03:00,
2013-03-27 02:08:00,25.7,18.9,30.24,WNW,298,0.0,0.0,75,0.00,,,0.00,meteohub,2013-03-27 06:08:00,
2013-03-27 02:13:00,26.1,18.9,30.24,WNW,298,0.0,0.0,74,0.00,,,0.00,meteohub,2013-03-27 06:13:00,
2013-03-27 02:18:00,26.2,18.9,30.25,NW,310,0.0,0.0,73,0.00,,,0.00,meteohub,2013-03-27 06:18:00,
2013-03-27 02:23:00,26.2,18.9,30.24,NNW,345,0.0,0.0,73,0.00,,,0.00,meteohub,2013-03-27 06:23:00,
2013-03-27 02:29:00,26.4,18.9,30.25,North,356,0.0,1.0,73,0.00,,,0.00,meteohub,2013-03-27 06:29:00,
2013-03-27 02:33:00,26.4,18.9,30.24,NNE,16,0.0,1.0,73,0.00,,,0.00,meteohub,2013-03-27 06:33:00,
2013-03-27 02:38:00,26.2,19.0,30.24,NNE,18,0.0,1.0,74,0.00,,,0.00,meteohub,2013-03-27 06:38:00,
2013-03-27 02:44:00,26.1,19.2,30.24,North,5,0.0,0.0,75,0.00,,,0.00,meteohub,2013-03-27 06:44:00,
2013-03-27 02:49:00,26.1,19.2,30.23,NNW,330,0.0,1.0,75,0.00,,,0.00,meteohub,2013-03-27 06:49:00,
2013-03-27 02:54:00,26.6,19.4,30.24,NNW,337,2.0,2.0,74,0.00,,,0.00,meteohub,2013-03-27 06:54:00,
2013-03-27 02:59:00,27.1,19.9,30.24,North,4,1.0,3.0,74,0.00,,,0.00,meteohub,2013-03-27 06:59:00,
2013-03-27 03:04:00,27.1,19.6,30.24,NNW,330,0.0,3.0,73,0.00,,,0.00,meteohub,2013-03-27 07:04:00,
2013-03-27 03:09:00,27.1,19.6,30.24,NNE,13,0.0,3.0,73,0.00,,,0.00,meteohub,2013-03-27 07:09:00,
2013-03-27 03:14:00,27.0,19.4,30.24,North,8,0.0,2.0,73,0.00,,,0.00,meteohub,2013-03-27 07:14:00,
2013-03-27 03:19:00,27.0,19.4,30.23,North,5,0.0,2.0,73,0.00,,,0.00,meteohub,2013-03-27 07:19:00,
2013-03-27 03:24:00,26.8,19.9,30.23,North,3,0.0,3.0,75,0.00,,,0.00,meteohub,2013-03-27 07:24:00,
2013-03-27 03:29:00,26.1,19.6,30.23,NNE,25,0.0,3.0,76,0.00,,,0.00,meteohub,2013-03-27 07:29:00,
2013-03-27 03:34:00,26.1,19.6,30.23,North,351,1.0,1.0,76,0.00,,,0.00,meteohub,2013-03-27 07:34:00,
2013-03-27 03:39:00,26.4,19.6,30.22,North,8,2.0,2.0,75,0.00,,,0.00,meteohub,2013-03-27 07:39:00,
2013-03-27 03:44:00,26.6,19.4,30.22,North,354,2.0,3.0,74,0.00,,,0.00,meteohub,2013-03-27 07:44:00,
2013-03-27 03:49:00,27.0,19.4,30.22,ENE,60,2.0,4.0,73,0.00,,,0.00,meteohub,2013-03-27 07:49:00,
2013-03-27 03:54:00,27.3,19.8,30.22,NE,37,1.0,5.0,73,0.00,,,0.00,meteohub,2013-03-27 07:54:00,
2013-03-27 03:59:00,27.3,19.8,30.23,NNW,346,0.0,5.0,73,0.00,,,0.00,meteohub,2013-03-27 07:59:00,
2013-03-27 04:04:00,27.3,19.8,30.23,North,5,1.0,5.0,73,0.00,,,0.00,meteohub,2013-03-27 08:04:00,
2013-03-27 04:09:00,27.3,19.8,30.23,NNW,329,0.0,5.0,73,0.00,,,0.00,meteohub,2013-03-27 08:09:00,
2013-03-27 04:14:00,27.1,19.6,30.23,West,280,0.0,5.0,73,0.00,,,0.00,meteohub,2013-03-27 08:14:00,
2013-03-27 04:19:00,27.0,19.8,30.24,NNW,329,0.0,5.0,74,0.00,,,0.00,meteohub,2013-03-27 08:19:00,
2013-03-27 04:24:00,25.9,18.7,30.24,WNW,301,0.0,4.0,74,0.00,,,0.00,meteohub,2013-03-27 08:24:00,
2013-03-27 04:29:00,25.9,18.7,30.23,WNW,301,0.0,4.0,74,0.00,,,0.00,meteohub,2013-03-27 08:29:00,
2013-03-27 08:08:00,22.1,19.6,30.27,North,-999,-999.0,-999.0,90,-99.99,,,0.00,meteohub,2013-03-27 12:08:00,
2013-03-27 08:13:00,23.2,20.1,30.28,North,-999,-999.0,-999.0,88,0.00,,,0.00,meteohub,2013-03-27 12:13:00,
2013-03-27 08:18:00,24.1,20.8,30.28,SE,129,0.0,-999.0,87,0.00,,,0.00,meteohub,2013-03-27 12:18:00,
2013-03-27 08:23:00,25.3,21.4,30.28,SE,127,0.0,0.0,85,0.00,,,0.00,meteohub,2013-03-27 12:23:00,
2013-03-27 08:28:00,25.7,21.7,30.28,SE,127,0.0,0.0,85,0.00,,,0.00,meteohub,2013-03-27 12:28:00,
2013-03-27 08:33:00,26.4,21.9,30.28,ENE,76,0.0,0.0,83,0.00,,,0.00,meteohub,2013-03-27 12:33:00,
2013-03-27 08:38:00,27.3,22.3,30.28,SSE,165,0.0,1.0,81,0.00,,,0.00,meteohub,2013-03-27 12:38:00,
2013-03-27 08:43:00,28.4,22.5,30.28,ENE,75,0.0,1.0,78,0.00,,,0.00,meteohub,2013-03-27 12:43:00,
2013-03-27 08:48:00,28.8,22.5,30.28,East,86,0.0,1.0,77,0.00,,,0.00,meteohub,2013-03-27 12:48:00,
2013-03-27 08:53:00,29.1,21.2,30.28,East,84,0.0,1.0,72,0.00,,,0.00,meteohub,2013-03-27 12:53:00,
2013-03-27 08:58:00,29.5,21.6,30.28,ESE,105,0.0,1.0,72,0.00,,,0.00,meteohub,2013-03-27 12:58:00,
2013-03-27 09:03:00,30.6,21.9,30.28,SE,124,0.0,1.0,70,0.00,,,0.00,meteohub,2013-03-27 13:03:00,
2013-03-27 09:08:00,31.3,22.6,30.28,SE,138,0.0,1.0,70,0.00,,,0.00,meteohub,2013-03-27 13:08:00,
2013-03-27 09:13:00,32.5,23.2,30.28,ESE,114,1.0,1.0,68,0.00,,,0.00,meteohub,2013-03-27 13:13:00,
2013-03-27 09:18:00,33.3,22.1,30.29,ESE,114,0.0,1.0,63,0.00,,,0.00,meteohub,2013-03-27 13:18:00,
2013-03-27 09:23:00,32.9,21.7,30.29,East,84,0.0,1.0,63,0.00,,,0.00,meteohub,2013-03-27 13:23:00,
2013-03-27 09:28:00,34.0,21.9,30.29,SSW,198,0.0,1.0,61,0.00,,,0.00,meteohub,2013-03-27 13:28:00,
2013-03-27 09:33:00,34.5,21.2,30.29,SSE,155,0.0,1.0,58,0.00,,,0.00,meteohub,2013-03-27 13:33:00,
2013-03-27 09:38:00,35.1,20.5,30.29,ESE,109,1.0,2.0,55,0.00,,,0.00,meteohub,2013-03-27 13:38:00,
2013-03-27 09:43:00,34.7,19.8,30.29,SE,127,1.0,2.0,54,0.00,,,0.00,meteohub,2013-03-27 13:43:00,
2013-03-27 09:49:00,34.2,19.8,30.30,ENE,57,2.0,3.0,55,0.00,,,0.00,meteohub,2013-03-27 13:49:00,
2013-03-27 09:54:00,34.2,19.8,30.30,East,89,1.0,4.0,55,0.00,,,0.00,meteohub,2013-03-27 13:54:00,
2013-03-27 09:59:00,34.7,20.1,30.30,SE,137,2.0,4.0,55,0.00,,,0.00,meteohub,2013-03-27 13:59:00,
2013-03-27 10:04:00,34.5,19.6,30.30,WSW,256,0.0,4.0,54,0.00,,,0.00,meteohub,2013-03-27 14:04:00,
2013-03-27 10:09:00,34.9,20.3,30.30,East,91,2.0,4.0,55,0.00,,,0.00,meteohub,2013-03-27 14:09:00,
2013-03-27 10:14:00,35.2,20.3,30.30,West,269,0.0,4.0,54,0.00,,,0.00,meteohub,2013-03-27 14:14:00,
2013-03-27 10:19:00,36.0,20.1,30.30,SSE,149,0.0,3.0,52,0.00,,,0.00,meteohub,2013-03-27 14:19:00,
2013-03-27 10:24:00,35.2,19.8,30.30,West,262,1.0,5.0,53,0.00,,,0.00,meteohub,2013-03-27 14:24:00,
2013-03-27 10:29:00,35.4,19.9,30.31,SE,136,3.0,5.0,53,0.00,,,0.00,meteohub,2013-03-27 14:29:00,
2013-03-27 10:34:00,36.0,20.5,30.31,ESE,114,2.0,5.0,53,0.00,,,0.00,meteohub,2013-03-27 14:34:00,
2013-03-27 10:39:00,36.9,19.9,30.30,ESE,105,0.0,4.0,50,0.00,,,0.00,meteohub,2013-03-27 14:39:00,
2013-03-27 10:44:00,37.2,18.3,30.30,North,11,1.0,4.0,46,0.00,,,0.00,meteohub,2013-03-27 14:44:00,
2013-03-27 10:49:00,36.3,18.5,30.30,WNW,291,1.0,4.0,48,0.00,,,0.00,meteohub,2013-03-27 14:49:00,
2013-03-27 10:54:00,37.2,19.4,30.30,WSW,255,2.0,5.0,48,0.00,,,0.00,meteohub,2013-03-27 14:54:00,
2013-03-27 10:59:00,37.6,18.1,30.30,SW,225,0.0,5.0,45,0.00,,,0.00,meteohub,2013-03-27 14:59:00,
2013-03-27 11:04:00,37.4,18.5,30.30,East,101,1.0,5.0,46,0.00,,,0.00,meteohub,2013-03-27 15:04:00,
2013-03-27 11:09:00,38.5,19.0,30.30,East,91,1.0,5.0,45,0.00,,,0.00,meteohub,2013-03-27 15:09:00,
2013-03-27 11:14:00,38.7,18.7,30.30,SSW,193,2.0,5.0,44,0.00,,,0.00,meteohub,2013-03-27 15:14:00,
2013-03-27 11:19:00,38.8,19.8,30.30,ENE,69,1.0,6.0,46,0.00,,,0.00,meteohub,2013-03-27 15:19:00,
2013-03-27 11:24:00,39.4,19.2,30.30,ENE,66,2.0,6.0,44,0.00,,,0.00,meteohub,2013-03-27 15:24:00,
2013-03-27 11:29:00,39.6,18.9,30.30,North,352,1.0,6.0,43,0.00,,,0.00,meteohub,2013-03-27 15:29:00,
2013-03-27 11:34:00,38.7,17.6,30.30,ESE,108,2.0,5.0,42,0.00,,,0.00,meteohub,2013-03-27 15:34:00,
2013-03-27 11:39:00,38.1,17.6,30.30,East,89,2.0,7.0,43,0.00,,,0.00,meteohub,2013-03-27 15:39:00,
2013-03-27 11:44:00,38.1,17.6,30.30,NNW,338,1.0,7.0,43,0.00,,,0.00,meteohub,2013-03-27 15:44:00,
2013-03-27 11:49:00,38.1,18.1,30.30,West,273,0.0,7.0,44,0.00,,,0.00,meteohub,2013-03-27 15:49:00,
2013-03-27 11:54:00,39.2,18.5,30.30,East,101,4.0,5.0,43,0.00,,,0.00,meteohub,2013-03-27 15:54:00,
2013-03-27 11:59:00,38.8,18.3,30.30,NW,319,2.0,7.0,43,0.00,,,0.00,meteohub,2013-03-27 15:59:00,
2013-03-27 12:04:00,40.3,19.6,30.30,ENE,72,2.0,7.0,43,0.00,,,0.00,meteohub,2013-03-27 16:04:00,
2013-03-27 12:09:00,41.4,19.4,30.30,ENE,64,1.0,7.0,41,0.00,,,0.00,meteohub,2013-03-27 16:09:00,
2013-03-27 12:14:00,41.4,18.3,30.30,SE,131,2.0,3.0,39,0.00,,,0.00,meteohub,2013-03-27 16:14:00,
2013-03-27 12:19:00,41.5,19.0,30.30,SSE,163,0.0,6.0,40,0.00,,,0.00,meteohub,2013-03-27 16:19:00,
2013-03-27 12:24:00,41.7,18.5,30.30,East,82,5.0,6.0,39,0.00,,,0.00,meteohub,2013-03-27 16:24:00,
2013-03-27 12:29:00,40.8,18.3,30.29,North,352,2.0,8.0,40,0.00,,,0.00,meteohub,2013-03-27 16:29:00,
2013-03-27 12:34:00,41.0,18.5,30.29,East,90,4.0,8.0,40,0.00,,,0.00,meteohub,2013-03-27 16:34:00,
2013-03-27 12:39:00,41.5,18.5,30.29,East,98,3.0,8.0,39,0.00,,,0.00,meteohub,2013-03-27 16:39:00,
2013-03-27 12:44:00,42.3,19.0,30.29,ESE,121,3.0,8.0,39,0.00,,,0.00,meteohub,2013-03-27 16:44:00,
2013-03-27 12:49:00,42.3,18.5,30.28,NNW,336,1.0,7.0,38,0.00,,,0.00,meteohub,2013-03-27 16:49:00,
2013-03-27 12:54:00,42.8,18.9,30.28,NE,56,3.0,10.0,38,0.00,,,0.00,meteohub,2013-03-27 16:54:00,
2013-03-27 12:59:00,43.5,19.0,30.28,SE,124,3.0,10.0,37,0.00,,,0.00,meteohub,2013-03-27 16:59:00,
2013-03-27 13:04:00,44.1,18.9,30.28,SW,233,4.0,10.0,36,0.00,,,0.00,meteohub,2013-03-27 17:04:00,
2013-03-27 13:09:00,45.1,19.0,30.28,SW,222,1.0,7.0,35,0.00,,,0.00,meteohub,2013-03-27 17:09:00,
2013-03-27 13:15:00,45.1,19.0,30.28,SE,136,5.0,6.0,35,0.00,,,0.00,meteohub,2013-03-27 17:15:00,
2013-03-27 13:20:00,45.3,19.2,30.28,SSE,156,5.0,8.0,35,0.00,,,0.00,meteohub,2013-03-27 17:20:00,
2013-03-27 13:25:00,45.3,19.2,30.28,SE,141,5.0,9.0,35,0.00,,,0.00,meteohub,2013-03-27 17:25:00,
2013-03-27 13:30:00,45.7,18.9,30.28,East,96,5.0,9.0,34,0.00,,,0.00,meteohub,2013-03-27 17:30:00,
2013-03-27 13:35:00,45.9,19.8,30.27,West,263,4.0,8.0,35,0.00,,,0.00,meteohub,2013-03-27 17:35:00,
2013-03-27 13:40:00,45.7,18.1,30.27,ESE,121,6.0,8.0,33,0.00,,,0.00,meteohub,2013-03-27 17:40:00,
2013-03-27 13:45:00,46.0,20.5,30.27,NNW,335,0.0,9.0,36,0.00,,,0.00,meteohub,2013-03-27 17:45:00,
2013-03-27 13:50:00,46.2,19.4,30.27,WSW,243,2.0,14.0,34,0.00,,,0.00,meteohub,2013-03-27 17:50:00,
2013-03-27 13:55:00,46.6,19.0,30.27,WNW,285,1.0,14.0,33,0.00,,,0.00,meteohub,2013-03-27 17:55:00,
2013-03-27 14:00:00,46.4,19.6,30.27,West,270,7.0,11.0,34,0.00,,,0.00,meteohub,2013-03-27 18:00:00,
2013-03-27 14:05:00,46.9,19.4,30.27,North,358,7.0,11.0,33,0.00,,,0.00,meteohub,2013-03-27 18:05:00,
2013-03-27 14:10:00,47.1,19.4,30.26,NNW,343,1.0,9.0,33,0.00,,,0.00,meteohub,2013-03-27 18:10:00,
2013-03-27 14:17:00,48.6,19.9,30.26,NW,312,1.0,9.0,32,0.00,,,0.00,meteohub,2013-03-27 18:17:00,
2013-03-27 14:22:00,48.6,18.5,30.25,SSE,166,5.0,7.0,30,0.00,,,0.00,meteohub,2013-03-27 18:22:00,
2013-03-27 14:27:00,48.2,18.1,30.25,SSW,194,3.0,7.0,30,0.00,,,0.00,meteohub,2013-03-27 18:27:00,
2013-03-27 14:32:00,48.4,18.3,30.25,NE,49,5.0,10.0,30,0.00,,,0.00,meteohub,2013-03-27 18:32:00,
2013-03-27 14:37:00,48.0,18.1,30.25,East,81,6.0,10.0,30,0.00,,,0.00,meteohub,2013-03-27 18:37:00,
2013-03-27 14:42:00,48.0,18.1,30.25,East,101,3.0,10.0,30,0.00,,,0.00,meteohub,2013-03-27 18:42:00,
2013-03-27 14:47:00,48.9,18.9,30.25,East,79,2.0,8.0,30,0.00,,,0.00,meteohub,2013-03-27 18:47:00,
2013-03-27 14:52:00,49.6,17.8,30.25,North,3,3.0,8.0,28,0.00,,,0.00,meteohub,2013-03-27 18:52:00,
2013-03-27 14:57:00,49.1,17.4,30.24,NNW,340,2.0,8.0,28,0.00,,,0.00,meteohub,2013-03-27 18:57:00,
2013-03-27 15:02:00,48.7,17.1,30.24,NW,309,0.0,9.0,28,0.00,,,0.00,meteohub,2013-03-27 19:02:00,
2013-03-27 15:08:00,49.3,17.6,30.24,SW,223,2.0,9.0,28,0.00,,,0.00,meteohub,2013-03-27 19:08:00,
2013-03-27 15:13:00,50.4,17.6,30.24,SE,143,3.0,9.0,27,0.00,,,0.00,meteohub,2013-03-27 19:13:00,
2013-03-27 15:18:00,49.8,17.2,30.24,NNW,348,1.0,9.0,27,0.00,,,0.00,meteohub,2013-03-27 19:18:00,
2013-03-27 15:23:00,50.5,17.8,30.23,East,96,6.0,9.0,27,0.00,,,0.00,meteohub,2013-03-27 19:23:00,
2013-03-27 15:28:00,48.6,22.8,30.24,NNE,14,2.0,19.0,36,0.00,,,0.00,meteohub,2013-03-27 19:28:00,
2013-03-27 15:33:00,48.4,23.9,30.24,NW,321,5.0,19.0,38,0.00,,,0.00,meteohub,2013-03-27 19:33:00,
2013-03-27 15:38:00,48.0,24.3,30.24,NNE,31,3.0,19.0,39,0.00,,,0.00,meteohub,2013-03-27 19:38:00,
2013-03-27 15:43:00,48.0,24.3,30.23,NW,307,1.0,13.0,39,0.00,,,0.00,meteohub,2013-03-27 19:43:00,
2013-03-27 15:48:00,48.0,24.3,30.23,ENE,78,1.0,13.0,39,0.00,,,0.00,meteohub,2013-03-27 19:48:00,
2013-03-27 15:53:00,47.7,24.4,30.23,ENE,73,2.0,10.0,40,0.00,,,0.00,meteohub,2013-03-27 19:53:00,
2013-03-27 15:58:00,47.8,24.1,30.23,NNW,339,4.0,10.0,39,0.00,,,0.00,meteohub,2013-03-27 19:58:00,
2013-03-27 16:03:00,48.0,24.3,30.23,NNW,327,2.0,10.0,39,0.00,,,0.00,meteohub,2013-03-27 20:03:00,
2013-03-27 16:08:00,48.0,24.3,30.22,NNW,335,4.0,9.0,39,0.00,,,0.00,meteohub,2013-03-27 20:08:00,
2013-03-27 16:13:00,47.7,24.4,30.22,NNW,328,4.0,8.0,40,0.00,,,0.00,meteohub,2013-03-27 20:13:00,
2013-03-27 16:18:00,47.3,23.5,30.22,NW,313,5.0,12.0,39,0.00,,,0.00,meteohub,2013-03-27 20:18:00,
2013-03-27 16:23:00,47.5,23.7,30.22,East,100,2.0,12.0,39,0.00,,,0.00,meteohub,2013-03-27 20:23:00,
2013-03-27 16:28:00,48.0,24.3,30.22,NNE,29,3.0,14.0,39,0.00,,,0.00,meteohub,2013-03-27 20:28:00,
2013-03-27 16:33:00,48.7,24.3,30.22,NNW,334,2.0,14.0,38,0.00,,,0.00,meteohub,2013-03-27 20:33:00,
2013-03-27 16:38:00,48.9,24.4,30.22,NNW,339,2.0,14.0,38,0.00,,,0.00,meteohub,2013-03-27 20:38:00,
2013-03-27 16:43:00,48.6,24.1,30.22,North,356,8.0,9.0,38,0.00,,,0.00,meteohub,2013-03-27 20:43:00,
2013-03-27 16:48:00,47.8,24.6,30.22,ESE,119,7.0,10.0,40,0.00,,,0.00,meteohub,2013-03-27 20:48:00,
2013-03-27 16:53:00,47.8,24.1,30.22,ENE,65,3.0,10.0,39,0.00,,,0.00,meteohub,2013-03-27 20:53:00,
2013-03-27 16:58:00,47.5,24.4,30.22,ENE,65,1.0,10.0,40,0.00,,,0.00,meteohub,2013-03-27 20:58:00,
2013-03-27 17:03:00,47.7,24.4,30.22,ENE,77,4.0,10.0,40,0.00,,,0.00,meteohub,2013-03-27 21:03:00,
2013-03-27 17:08:00,48.4,25.2,30.21,NE,43,4.0,10.0,40,0.00,,,0.00,meteohub,2013-03-27 21:08:00,
2013-03-27 17:13:00,48.4,23.9,30.21,North,5,3.0,8.0,38,0.00,,,0.00,meteohub,2013-03-27 21:13:00,
2013-03-27 17:18:00,48.4,23.9,30.21,East,82,0.0,8.0,38,0.00,,,0.00,meteohub,2013-03-27 21:18:00,
2013-03-27 17:23:00,48.7,24.3,30.21,ENE,70,7.0,7.0,38,0.00,,,0.00,meteohub,2013-03-27 21:23:00,
2013-03-27 17:28:00,48.6,23.5,30.21,ESE,117,1.0,8.0,37,0.00,,,0.00,meteohub,2013-03-27 21:28:00,
2013-03-27 17:33:00,48.7,24.3,30.21,ENE,73,1.0,8.0,38,0.00,,,0.00,meteohub,2013-03-27 21:33:00,
2013-03-27 17:38:00,48.6,23.5,30.21,East,89,4.0,8.0,37,0.00,,,0.00,meteohub,2013-03-27 21:38:00,
2013-03-27 17:43:00,48.6,24.1,30.21,NE,51,2.0,6.0,38,0.00,,,0.00,meteohub,2013-03-27 21:43:00,
2013-03-27 17:48:00,48.6,23.5,30.21,North,350,1.0,7.0,37,0.00,,,0.00,meteohub,2013-03-27 21:48:00,
2013-03-27 17:53:00,48.4,23.9,30.21,ENE,72,2.0,7.0,38,0.00,,,0.00,meteohub,2013-03-27 21:53:00,
2013-03-27 17:58:00,47.8,25.3,30.22,NNW,347,4.0,7.0,41,0.00,,,0.00,meteohub,2013-03-27 21:58:00,
2013-03-27 18:03:00,47.5,25.5,30.22,North,6,2.0,10.0,42,0.00,,,0.00,meteohub,2013-03-27 22:03:00,
2013-03-27 18:08:00,47.3,25.3,30.22,North,358,1.0,10.0,42,0.00,,,0.00,meteohub,2013-03-27 22:08:00,
2013-03-27 18:13:00,46.9,25.5,30.22,NNW,335,3.0,10.0,43,0.00,,,0.00,meteohub,2013-03-27 22:13:00,
2013-03-27 18:18:00,47.1,25.7,30.22,NNW,340,1.0,11.0,43,0.00,,,0.00,meteohub,2013-03-27 22:18:00,
2013-03-27 18:23:00,46.6,25.3,30.23,North,351,6.0,11.0,43,0.00,,,0.00,meteohub,2013-03-27 22:23:00,
2013-03-27 18:28:00,46.0,25.3,30.23,NNW,342,5.0,11.0,44,0.00,,,0.00,meteohub,2013-03-27 22:28:00,
2013-03-27 18:33:00,45.7,25.0,30.23,NNE,23,7.0,9.0,44,0.00,,,0.00,meteohub,2013-03-27 22:33:00,
2013-03-27 18:38:00,45.1,25.5,30.23,NNW,340,4.0,9.0,46,0.00,,,0.00,meteohub,2013-03-27 22:38:00,
2013-03-27 18:43:00,44.8,25.3,30.24,NNW,340,7.0,9.0,46,0.00,,,0.00,meteohub,2013-03-27 22:43:00,
2013-03-27 18:48:00,44.1,24.6,30.24,ENE,60,2.0,13.0,46,0.00,,,0.00,meteohub,2013-03-27 22:48:00,
2013-03-27 18:53:00,43.9,25.0,30.24,ENE,76,2.0,13.0,47,0.00,,,0.00,meteohub,2013-03-27 22:53:00,
2013-03-27 18:58:00,43.3,25.0,30.24,ENE,60,2.0,13.0,48,0.00,,,0.00,meteohub,2013-03-27 22:58:00,
2013-03-27 19:04:00,43.2,24.8,30.25,East,89,3.0,10.0,48,0.00,,,0.00,meteohub,2013-03-27 23:04:00,
2013-03-27 19:09:00,42.6,24.3,30.24,North,6,1.0,8.0,48,0.00,,,0.00,meteohub,2013-03-27 23:09:00,
2013-03-27 19:14:00,42.1,24.3,30.25,NNE,23,4.0,11.0,49,0.00,,,0.00,meteohub,2013-03-27 23:14:00,
2013-03-27 19:19:00,41.7,24.4,30.25,North,5,4.0,11.0,50,0.00,,,0.00,meteohub,2013-03-27 23:19:00,
2013-03-27 19:24:00,41.4,24.1,30.25,ESE,112,3.0,11.0,50,0.00,,,0.00,meteohub,2013-03-27 23:24:00,
2013-03-27 19:29:00,41.2,24.4,30.25,NNE,19,2.0,10.0,51,0.00,,,0.00,meteohub,2013-03-27 23:29:00,
2013-03-27 19:34:00,40.6,23.9,30.25,ENE,61,3.0,8.0,51,0.00,,,0.00,meteohub,2013-03-27 23:34:00,
2013-03-27 19:39:00,40.5,24.3,30.25,North,359,0.0,8.0,52,0.00,,,0.00,meteohub,2013-03-27 23:39:00,
2013-03-27 19:44:00,40.1,23.9,30.25,NNE,15,0.0,12.0,52,0.00,,,0.00,meteohub,2013-03-27 23:44:00,
2013-03-27 19:49:00,39.7,23.5,30.25,NW,324,2.0,12.0,52,0.00,,,0.00,meteohub,2013-03-27 23:49:00,
2013-03-27 19:54:00,39.6,23.9,30.25,NE,50,5.0,12.0,53,0.00,,,0.00,meteohub,2013-03-27 23:54:00,
2013-03-27 19:59:00,39.2,23.5,30.25,ENE,70,2.0,9.0,53,0.00,,,0.00,meteohub,2013-03-27 23:59:00,
2013-03-27 20:04:00,38.8,23.5,30.26,NNW,344,3.0,8.0,54,0.00,,,0.00,meteohub,2013-03-28 00:04:00,
2013-03-27 20:09:00,38.5,23.4,30.26,North,350,4.0,8.0,54,0.00,,,0.00,meteohub,2013-03-28 00:09:00,
2013-03-27 20:14:00,38.5,23.4,30.26,North,0,2.0,7.0,54,0.00,,,0.00,meteohub,2013-03-28 00:14:00,
2013-03-27 20:19:00,37.9,23.2,30.26,North,11,3.0,7.0,55,0.00,,,0.00,meteohub,2013-03-28 00:19:00,
2013-03-27 20:24:00,37.9,23.2,30.26,North,357,0.0,7.0,55,0.00,,,0.00,meteohub,2013-03-28 00:24:00,
2013-03-27 20:29:00,37.6,23.4,30.26,NNW,347,1.0,6.0,56,0.00,,,0.00,meteohub,2013-03-28 00:29:00,
2013-03-27 20:34:00,37.6,23.4,30.27,NNW,335,0.0,5.0,56,0.00,,,0.00,meteohub,2013-03-28 00:34:00,
2013-03-27 20:39:00,37.0,23.2,30.27,North,1,0.0,4.0,57,0.00,,,0.00,meteohub,2013-03-28 00:39:00,
2013-03-27 20:44:00,36.9,23.0,30.27,North,4,1.0,4.0,57,0.00,,,0.00,meteohub,2013-03-28 00:44:00,
2013-03-27 20:49:00,36.7,23.4,30.27,NNE,29,0.0,4.0,58,0.00,,,0.00,meteohub,2013-03-28 00:49:00,
2013-03-27 20:54:00,36.3,23.0,30.27,North,1,1.0,4.0,58,0.00,,,0.00,meteohub,2013-03-28 00:54:00,
2013-03-27 20:59:00,36.3,23.0,30.27,North,4,1.0,6.0,58,0.00,,,0.00,meteohub,2013-03-28 00:59:00,
2013-03-27 21:04:00,36.1,23.2,30.27,North,5,2.0,6.0,59,0.00,,,0.00,meteohub,2013-03-28 01:04:00,
2013-03-27 21:09:00,36.0,23.0,30.27,NNE,32,3.0,6.0,59,0.00,,,0.00,meteohub,2013-03-28 01:09:00,
2013-03-27 21:14:00,35.6,23.0,30.27,NNW,342,3.0,5.0,60,0.00,,,0.00,meteohub,2013-03-28 01:14:00,
2013-03-27 21:19:00,35.6,23.0,30.27,North,9,2.0,6.0,60,0.00,,,0.00,meteohub,2013-03-28 01:19:00,
2013-03-27 21:24:00,35.2,23.2,30.27,NNE,12,0.0,6.0,61,0.00,,,0.00,meteohub,2013-03-28 01:24:00,
2013-03-27 21:29:00,34.7,23.0,30.27,NNE,19,1.0,6.0,62,0.00,,,0.00,meteohub,2013-03-28 01:29:00,
2013-03-27 21:34:00,34.5,22.8,30.27,North,355,0.0,6.0,62,0.00,,,0.00,meteohub,2013-03-28 01:34:00,
2013-03-27 21:39:00,34.0,23.0,30.28,North,11,0.0,4.0,64,0.00,,,0.00,meteohub,2013-03-28 01:39:00,
2013-03-27 21:44:00,33.4,23.0,30.28,North,354,2.0,3.0,65,0.00,,,0.00,meteohub,2013-03-28 01:44:00,
2013-03-27 21:49:00,33.4,22.6,30.28,NNW,348,0.0,3.0,64,0.00,,,0.00,meteohub,2013-03-28 01:49:00,
2013-03-27 21:54:00,33.1,22.6,30.28,NNW,347,0.0,2.0,65,0.00,,,0.00,meteohub,2013-03-28 01:54:00,
2013-03-27 21:59:00,32.9,22.8,30.28,NNW,336,0.0,2.0,66,0.00,,,0.00,meteohub,2013-03-28 01:59:00,
2013-03-27 22:04:00,32.5,22.5,30.28,North,4,0.0,2.0,66,0.00,,,0.00,meteohub,2013-03-28 02:04:00,
2013-03-27 22:09:00,32.2,22.8,30.28,NNW,338,0.0,2.0,68,0.00,,,0.00,meteohub,2013-03-28 02:09:00,
2013-03-27 22:14:00,31.8,22.5,30.28,NNE,18,0.0,2.0,68,0.00,,,0.00,meteohub,2013-03-28 02:14:00,
2013-03-27 22:19:00,31.6,22.6,30.29,NNE,13,0.0,2.0,69,0.00,,,0.00,meteohub,2013-03-28 02:19:00,
2013-03-27 22:24:00,31.5,22.5,30.29,North,8,1.0,1.0,69,0.00,,,0.00,meteohub,2013-03-28 02:24:00,
2013-03-27 22:29:00,31.6,22.6,30.29,NNE,13,4.0,4.0,69,0.00,,,0.00,meteohub,2013-03-28 02:29:00,
2013-03-27 22:34:00,32.2,23.2,30.29,NNE,13,0.0,3.0,69,0.00,,,0.00,meteohub,2013-03-28 02:34:00,
2013-03-27 22:39:00,31.8,22.8,30.29,NE,41,0.0,4.0,69,0.00,,,0.00,meteohub,2013-03-28 02:39:00,
2013-03-27 22:44:00,31.5,22.8,30.29,NE,37,0.0,4.0,70,0.00,,,0.00,meteohub,2013-03-28 02:44:00,
2013-03-27 22:49:00,31.5,22.8,30.29,North,5,2.0,3.0,70,0.00,,,0.00,meteohub,2013-03-28 02:49:00,
2013-03-27 22:54:00,31.5,22.8,30.29,NNE,17,0.0,3.0,70,0.00,,,0.00,meteohub,2013-03-28 02:54:00,
2013-03-27 22:59:00,31.5,22.8,30.29,NNW,331,0.0,3.0,70,0.00,,,0.00,meteohub,2013-03-28 02:59:00,
2013-03-27 23:04:00,31.5,22.8,30.29,NW,316,0.0,3.0,70,0.00,,,0.00,meteohub,2013-03-28 03:04:00,
2013-03-27 23:09:00,31.1,22.8,30.29,North,354,0.0,2.0,71,0.00,,,0.00,meteohub,2013-03-28 03:09:00,
2013-03-27 23:14:00,30.7,22.8,30.29,North,359,0.0,2.0,72,0.00,,,0.00,meteohub,2013-03-28 03:14:00,
2013-03-27 23:19:00,30.6,22.6,30.29,NNW,342,3.0,3.0,72,0.00,,,0.00,meteohub,2013-03-28 03:19:00,
2013-03-27 23:25:00,30.6,22.6,30.29,NE,34,2.0,2.0,72,0.00,,,0.00,meteohub,2013-03-28 03:25:00,
2013-03-27 23:30:00,30.6,22.6,30.29,North,8,2.0,4.0,72,0.00,,,0.00,meteohub,2013-03-28 03:30:00,
2013-03-27 23:35:00,30.6,23.0,30.29,NNE,27,2.0,4.0,73,0.00,,,0.00,meteohub,2013-03-28 03:35:00,
2013-03-27 23:40:00,30.2,22.6,30.28,North,1,1.0,5.0,73,0.00,,,0.00,meteohub,2013-03-28 03:40:00,
2013-03-27 23:45:00,30.0,22.8,30.29,North,353,1.0,5.0,74,0.00,,,0.00,meteohub,2013-03-28 03:45:00,
2013-03-27 23:50:00,29.8,22.6,30.28,NNE,20,0.0,5.0,74,0.00,,,0.00,meteohub,2013-03-28 03:50:00,
2013-03-27 23:55:00,29.7,22.6,30.28,NNE,21,3.0,5.0,75,0.00,,,0.00,meteohub,2013-03-28 03:55:00,